Time;durP1;ratioP1;P1;durP2;ratioP2;P2;SDS_P1;SDS_P2;PMS_P1;PMS_P2;Temp;Humidity;BMP_temperature;BMP_pressure;BME280_temperature;BME280_humidity;BME280_pressure;Samples;Min_cycle;Max_cycle;Signal;HPM_P1;HPM_P2
2022/10/22 00:00:22;;;;;;;7.80;2.70;;;19.20;73.70;;;;;;6100369;29;20438;-72
2022/10/22 00:03:23;;;;;;;8.25;2.88;;;19.20;73.80;;;;;;6104407;29;20473;-72
2022/10/22 00:06:24;;;;;;;4.28;1.98;;;19.20;73.90;;;;;;6101673;29;20059;-72
2022/10/22 00:09:25;;;;;;;3.03;2.13;;;19.20;73.90;;;;;;6100734;29;20106;-72
2022/10/22 00:12:26;;;;;;;4.35;2.15;;;19.20;74.00;;;;;;6098273;29;20119;-72
2022/10/22 00:15:27;;;;;;;4.70;1.98;;;19.20;74.30;;;;;;6099811;29;20039;-72
2022/10/22 00:18:28;;;;;;;7.45;2.03;;;19.20;74.30;;;;;;6083911;29;20051;-71
2022/10/22 00:21:29;;;;;;;6.93;1.67;;;19.20;74.30;;;;;;6114541;29;20378;-72
2022/10/22 00:24:34;;;;;;;3.70;1.20;;;19.30;74.30;;;;;;6097647;29;20346;-72
2022/10/22 00:27:35;;;;;;;4.35;1.88;;;19.20;74.30;;;;;;6108314;29;20016;-72
2022/10/22 00:30:36;;;;;;;5.80;1.35;;;19.50;74.40;;;;;;6086285;29;20588;-72
2022/10/22 00:33:38;;;;;;;5.32;1.60;;;19.20;74.30;;;;;;6094091;29;20521;-72
2022/10/22 00:36:39;;;;;;;3.28;1.50;;;19.20;74.40;;;;;;6095979;29;20098;-72
2022/10/22 00:39:40;;;;;;;2.90;1.00;;;19.20;74.50;;;;;;6096376;29;20462;-72
2022/10/22 00:42:41;;;;;;;3.72;1.17;;;19.30;74.60;;;;;;6099084;29;20135;-72
2022/10/22 00:45:42;;;;;;;5.57;0.75;;;19.20;74.50;;;;;;6101534;29;20046;-72
2022/10/22 00:48:44;;;;;;;1.60;0.82;;;19.20;74.50;;;;;;6096776;29;20050;-72
2022/10/22 00:51:45;;;;;;;9.00;0.93;;;19.20;74.70;;;;;;6098486;29;20059;-72
2022/10/22 00:54:46;;;;;;;3.05;1.10;;;19.20;74.90;;;;;;6099984;29;20076;-71
2022/10/22 00:57:47;;;;;;;1.63;0.98;;;19.20;75.00;;;;;;6102260;29;20448;-71
2022/10/22 01:00:49;;;;;;;2.15;1.13;;;19.20;75.00;;;;;;6102178;29;20389;-72
2022/10/22 01:03:50;;;;;;;7.18;1.38;;;19.20;75.00;;;;;;6101457;29;20075;-72
2022/10/22 01:06:51;;;;;;;2.22;1.10;;;19.20;75.00;;;;;;6098810;29;20059;-72
2022/10/22 01:10:17;;;;;;;1.55;0.85;;;19.20;75.00;;;;;;6109763;29;20032;-72
2022/10/22 01:13:40;;;;;;;10.13;1.48;;;19.20;75.20;;;;;;6103036;29;20131;-72
2022/10/22 01:17:22;;;;;;;3.08;1.20;;;19.20;75.40;;;;;;6092861;29;20603;-73
2022/10/22 01:20:34;;;;;;;2.85;1.42;;;19.20;76.60;;;;;;6010595;29;20129;-72
2022/10/22 01:23:59;;;;;;;2.72;1.58;;;19.20;75.80;;;;;;6023715;29;20065;-72
2022/10/22 01:27:14;;;;;;;4.38;1.70;;;19.10;76.00;;;;;;6022402;29;20045;-73
2022/10/22 01:30:16;;;;;;;3.05;1.40;;;19.10;76.10;;;;;;6025785;29;20053;-72
2022/10/22 01:33:21;;;;;;;1.83;0.95;;;19.10;76.10;;;;;;6034675;29;20034;-72
2022/10/22 01:36:23;;;;;;;3.03;1.23;;;19.20;76.10;;;;;;6030368;29;20045;-72
2022/10/22 01:39:26;;;;;;;4.28;1.55;;;19.20;76.00;;;;;;6034168;29;20403;-74
2022/10/22 01:42:27;;;;;;;2.20;1.00;;;19.20;76.00;;;;;;6023403;29;20105;-72
2022/10/22 01:45:32;;;;;;;2.30;0.85;;;19.20;75.90;;;;;;6031299;29;20130;-73
2022/10/22 01:48:53;;;;;;;1.05;0.77;;;19.20;75.90;;;;;;6033182;29;20040;-72
2022/10/22 01:52:11;;;;;;;3.38;1.38;;;19.20;75.90;;;;;;6025403;29;20360;-72
2022/10/22 01:55:25;;;;;;;1.83;1.30;;;19.20;76.10;;;;;;6100236;29;20041;-73
2022/10/22 01:58:49;;;;;;;3.70;1.10;;;19.10;76.00;;;;;;6107960;29;20265;-73
2022/10/22 02:02:18;;;;;;;2.50;1.27;;;19.10;76.20;;;;;;6051508;29;20079;-73
2022/10/22 02:05:27;;;;;;;2.45;1.17;;;19.10;76.40;;;;;;6052522;29;20025;-72
2022/10/22 02:08:31;;;;;;;1.92;0.90;;;19.00;76.50;;;;;;6051026;29;20068;-72
2022/10/22 02:11:32;;;;;;;2.33;0.88;;;19.00;76.70;;;;;;6040223;29;20041;-72
2022/10/22 02:14:38;;;;;;;1.67;0.90;;;19.00;76.70;;;;;;6052547;29;20033;-72
2022/10/22 02:17:41;;;;;;;2.63;1.00;;;19.00;76.80;;;;;;6052109;29;20131;-72
2022/10/22 02:20:42;;;;;;;1.55;1.10;;;19.00;76.80;;;;;;6036128;29;20048;-72
2022/10/22 02:23:43;;;;;;;2.35;1.60;;;19.10;76.70;;;;;;6050114;29;20044;-73
2022/10/22 02:27:00;;;;;;;2.78;1.10;;;19.10;76.70;;;;;;6049805;29;20595;-72
2022/10/22 02:30:05;;;;;;;2.15;0.98;;;19.00;76.60;;;;;;6048985;29;20061;-73
2022/10/22 02:33:18;;;;;;;1.60;0.85;;;19.10;76.60;;;;;;6056822;29;20032;-73
2022/10/22 02:36:20;;;;;;;2.80;0.82;;;19.10;76.50;;;;;;6047615;29;20056;-73
2022/10/22 02:39:22;;;;;;;3.47;1.25;;;19.10;76.40;;;;;;6083488;29;20040;-72
2022/10/22 02:42:27;;;;;;;3.33;1.48;;;19.10;76.30;;;;;;6089514;29;20045;-72
2022/10/22 02:45:28;;;;;;;5.75;1.25;;;19.10;76.40;;;;;;6101171;29;20047;-72
2022/10/22 02:48:29;;;;;;;5.32;1.65;;;19.10;76.40;;;;;;6103801;29;20044;-73
2022/10/22 02:51:30;;;;;;;1.90;1.27;;;19.10;76.40;;;;;;6097020;29;20409;-72
2022/10/22 02:54:31;;;;;;;2.03;1.17;;;19.10;77.20;;;;;;6104277;29;20036;-72
2022/10/22 02:57:32;;;;;;;3.08;1.38;;;19.10;76.40;;;;;;6105097;29;20040;-72
2022/10/22 03:00:33;;;;;;;1.77;1.05;;;19.10;76.40;;;;;;6101716;29;20032;-72
2022/10/22 03:03:34;;;;;;;3.33;1.13;;;19.10;76.50;;;;;;6100018;29;20071;-72
2022/10/22 03:06:35;;;;;;;1.88;1.05;;;19.10;76.40;;;;;;6101032;29;20046;-72
2022/10/22 03:09:36;;;;;;;1.70;1.02;;;19.10;76.40;;;;;;6095910;29;20307;-73
2022/10/22 03:12:36;;;;;;;2.65;1.10;;;19.20;76.30;;;;;;6094181;29;20037;-72
2022/10/22 03:15:37;;;;;;;1.52;0.98;;;19.10;76.30;;;;;;6104090;29;20361;-73
2022/10/22 03:18:38;;;;;;;0.98;0.88;;;19.10;76.30;;;;;;6094774;29;20047;-73
2022/10/22 03:21:48;;;;;;;2.38;0.85;;;19.10;76.30;;;;;;6098282;29;20029;-73
2022/10/22 03:24:53;;;;;;;1.23;1.00;;;19.10;76.40;;;;;;6092714;29;20062;-71
2022/10/22 03:27:56;;;;;;;1.58;0.98;;;19.10;76.50;;;;;;6104350;29;20039;-72
2022/10/22 03:30:57;;;;;;;2.75;0.82;;;19.00;76.50;;;;;;6104428;29;20059;-72
2022/10/22 03:33:57;;;;;;;3.60;0.70;;;19.10;76.60;;;;;;6099887;29;20463;-72
2022/10/22 03:37:00;;;;;;;2.53;0.75;;;19.10;76.50;;;;;;6105980;29;20040;-72
2022/10/22 03:40:02;;;;;;;0.60;0.52;;;19.00;76.40;;;;;;6111680;29;20709;-71
2022/10/22 03:43:03;;;;;;;2.20;0.50;;;19.10;76.30;;;;;;6094109;29;20119;-72
2022/10/22 03:46:04;;;;;;;2.30;0.88;;;19.10;76.30;;;;;;6095122;29;20036;-71
2022/10/22 03:49:05;;;;;;;6.25;0.90;;;19.10;76.10;;;;;;6109829;29;20104;-72
2022/10/22 03:52:10;;;;;;;0.77;0.50;;;19.20;76.10;;;;;;6102721;29;20048;-72
2022/10/22 03:55:11;;;;;;;1.40;0.50;;;19.20;76.10;;;;;;6098582;29;20039;-72
2022/10/22 03:58:12;;;;;;;2.15;0.80;;;19.10;75.90;;;;;;6105576;29;20042;-71
2022/10/22 04:01:14;;;;;;;1.52;0.82;;;19.20;75.80;;;;;;6078571;29;20038;-72
2022/10/22 04:04:15;;;;;;;1.58;0.88;;;19.10;75.80;;;;;;6077919;29;20032;-71
2022/10/22 04:07:15;;;;;;;2.88;0.90;;;19.20;75.80;;;;;;6109578;29;20095;-71
2022/10/22 04:10:16;;;;;;;0.88;0.68;;;19.10;75.80;;;;;;6097983;29;20036;-72
2022/10/22 04:13:17;;;;;;;4.38;0.90;;;19.10;75.80;;;;;;6085890;29;20092;-74
2022/10/22 04:16:21;;;;;;;1.60;0.98;;;19.10;75.80;;;;;;6091813;29;20100;-71
2022/10/22 04:19:22;;;;;;;1.25;0.60;;;19.10;75.80;;;;;;6099226;29;20046;-71
2022/10/22 04:22:22;;;;;;;2.22;0.90;;;19.10;75.80;;;;;;6097196;29;20082;-71
2022/10/22 04:25:23;;;;;;;1.65;1.10;;;19.10;75.70;;;;;;6091730;29;20044;-72
2022/10/22 04:28:24;;;;;;;2.88;1.13;;;19.20;75.60;;;;;;6095948;29;20040;-72
2022/10/22 04:31:25;;;;;;;1.65;1.02;;;19.20;75.60;;;;;;6097691;29;20036;-71
2022/10/22 04:34:27;;;;;;;1.95;0.90;;;19.20;75.40;;;;;;6092718;29;20028;-72
2022/10/22 04:37:28;;;;;;;1.67;0.90;;;19.20;75.40;;;;;;6081022;29;20050;-72
2022/10/22 04:40:29;;;;;;;2.03;1.02;;;19.20;75.40;;;;;;6086233;29;20365;-72
2022/10/22 04:43:29;;;;;;;1.33;1.23;;;19.20;75.30;;;;;;6106965;29;20032;-71
2022/10/22 04:46:32;;;;;;;3.60;0.93;;;19.20;75.20;;;;;;6096571;29;20142;-72
2022/10/22 04:49:33;;;;;;;2.58;1.30;;;19.20;75.30;;;;;;6090504;29;20111;-72
2022/10/22 04:52:34;;;;;;;1.95;0.95;;;19.10;75.20;;;;;;6093186;29;20041;-72
2022/10/22 04:55:34;;;;;;;3.20;1.30;;;19.10;75.20;;;;;;6081316;29;20032;-72
2022/10/22 04:58:36;;;;;;;6.72;1.65;;;19.10;75.30;;;;;;6088564;29;20376;-72
2022/10/22 05:01:43;;;;;;;3.35;1.20;;;19.20;75.40;;;;;;6093799;29;20072;-72
2022/10/22 05:04:43;;;;;;;4.68;1.48;;;19.10;75.40;;;;;;6091178;29;20040;-72
2022/10/22 05:07:44;;;;;;;2.67;1.20;;;19.00;75.40;;;;;;6102365;29;20039;-72
2022/10/22 05:10:45;;;;;;;3.85;1.25;;;19.00;75.40;;;;;;6087458;29;20043;-72
2022/10/22 05:13:46;;;;;;;4.88;1.60;;;19.00;75.70;;;;;;6091397;29;20497;-73
2022/10/22 05:16:48;;;;;;;6.53;1.50;;;19.00;75.60;;;;;;6092954;29;20052;-72
2022/10/22 05:19:49;;;;;;;2.10;1.60;;;18.90;75.60;;;;;;6093311;29;20032;-72
2022/10/22 05:22:50;;;;;;;2.47;1.48;;;18.90;75.70;;;;;;6090210;29;20040;-72
2022/10/22 05:25:51;;;;;;;3.22;1.45;;;18.90;75.70;;;;;;6092200;29;20038;-73
2022/10/22 05:28:53;;;;;;;4.43;1.23;;;18.90;75.80;;;;;;6102533;29;20103;-72
2022/10/22 05:31:54;;;;;;;7.85;1.85;;;18.90;76.00;;;;;;6092552;29;20036;-73
2022/10/22 05:34:55;;;;;;;5.05;2.00;;;18.90;76.00;;;;;;6096885;29;20449;-72
2022/10/22 05:37:56;;;;;;;2.28;1.08;;;18.80;75.90;;;;;;6097444;29;20071;-72
2022/10/22 05:41:00;;;;;;;2.85;1.33;;;18.80;75.90;;;;;;6085176;29;20502;-72
2022/10/22 05:44:02;;;;;;;2.42;1.08;;;18.80;75.90;;;;;;6090899;29;20059;-72
2022/10/22 05:47:02;;;;;;;1.17;0.95;;;18.80;75.80;;;;;;6096646;29;20099;-72
2022/10/22 05:50:03;;;;;;;1.48;1.13;;;18.80;75.80;;;;;;6092985;29;20443;-72
2022/10/22 05:53:05;;;;;;;2.70;1.15;;;18.80;75.80;;;;;;6098380;29;20752;-72
2022/10/22 05:56:13;;;;;;;1.55;1.20;;;18.80;75.80;;;;;;6090310;29;20589;-72
2022/10/22 05:59:14;;;;;;;4.65;2.03;;;18.80;75.80;;;;;;6105721;29;20034;-73
2022/10/22 06:02:15;;;;;;;2.95;1.20;;;18.90;75.70;;;;;;6082678;29;20362;-73
2022/10/22 06:05:16;;;;;;;2.78;1.23;;;18.90;75.60;;;;;;6106293;29;20040;-73
2022/10/22 06:08:17;;;;;;;1.77;1.25;;;18.90;75.60;;;;;;6103706;29;20032;-72
2022/10/22 06:11:20;;;;;;;5.30;1.80;;;18.90;75.50;;;;;;6082005;29;20165;-72
2022/10/22 06:14:21;;;;;;;2.15;1.40;;;18.90;75.40;;;;;;6079796;29;20044;-72
2022/10/22 06:17:22;;;;;;;5.47;1.80;;;18.90;75.40;;;;;;6087272;29;20036;-72
2022/10/22 06:20:24;;;;;;;10.20;2.00;;;18.90;75.40;;;;;;6088239;29;20029;-74
2022/10/22 06:23:25;;;;;;;4.05;2.03;;;18.90;75.30;;;;;;6105632;29;20083;-74
2022/10/22 06:26:27;;;;;;;7.50;1.88;;;18.90;75.30;;;;;;6092986;29;20032;-75
2022/10/22 06:29:28;;;;;;;7.28;2.25;;;19.00;75.30;;;;;;6101078;29;20036;-75
2022/10/22 06:32:29;;;;;;;5.05;2.20;;;19.00;75.20;;;;;;6100006;29;20024;-75
2022/10/22 06:35:30;;;;;;;4.13;2.45;;;19.00;75.20;;;;;;6095562;29;20353;-75
2022/10/22 06:38:31;;;;;;;3.85;2.13;;;19.10;75.10;;;;;;6101735;29;20131;-75
2022/10/22 06:41:32;;;;;;;5.82;2.30;;;19.10;75.00;;;;;;6112013;29;20074;-76
2022/10/22 06:44:33;;;;;;;6.47;1.63;;;19.10;74.90;;;;;;6096686;29;20091;-74
2022/10/22 06:47:34;;;;;;;5.10;1.90;;;19.10;74.90;;;;;;6098333;29;20702;-74
2022/10/22 06:50:35;;;;;;;7.07;2.55;;;19.10;74.90;;;;;;6097880;29;20103;-74
2022/10/22 06:53:37;;;;;;;5.15;2.70;;;19.10;74.80;;;;;;6092991;29;20062;-73
2022/10/22 06:56:38;;;;;;;5.10;2.05;;;19.20;74.90;;;;;;6098931;29;20528;-75
2022/10/22 06:59:39;;;;;;;8.02;2.95;;;19.20;74.60;;;;;;6098912;29;20047;-75
2022/10/22 07:02:40;;;;;;;5.15;2.70;;;19.20;74.40;;;;;;6096520;29;20067;-74
2022/10/22 07:05:41;;;;;;;8.73;2.95;;;19.30;74.30;;;;;;6096280;29;20400;-75
2022/10/22 07:08:43;;;;;;;4.22;2.20;;;19.10;74.00;;;;;;6101233;29;20106;-74
2022/10/22 07:11:45;;;;;;;2.33;1.85;;;19.10;74.00;;;;;;6100146;29;20316;-75
2022/10/22 07:14:46;;;;;;;10.52;2.30;;;19.10;74.10;;;;;;6094229;29;20338;-74
2022/10/22 07:17:47;;;;;;;4.22;1.90;;;19.00;73.90;;;;;;6086569;29;20064;-74
2022/10/22 07:20:48;;;;;;;4.30;1.83;;;19.00;74.10;;;;;;6112712;29;20099;-74
2022/10/22 07:23:49;;;;;;;6.78;2.67;;;19.00;74.10;;;;;;6092784;29;20036;-74
2022/10/22 07:26:50;;;;;;;4.95;2.20;;;18.90;74.10;;;;;;6094933;29;20373;-74
2022/10/22 07:29:51;;;;;;;10.15;2.22;;;18.90;74.20;;;;;;6097886;29;20067;-74
2022/10/22 07:32:52;;;;;;;5.80;1.90;;;18.90;74.30;;;;;;6099638;29;20036;-74
2022/10/22 07:35:58;;;;;;;3.22;1.98;;;18.90;74.30;;;;;;6097403;29;20384;-75
2022/10/22 07:39:00;;;;;;;2.38;1.42;;;18.90;74.30;;;;;;6098291;29;20032;-74
2022/10/22 07:42:02;;;;;;;4.72;2.10;;;18.90;74.40;;;;;;6100303;29;20435;-73
2022/10/22 07:45:04;;;;;;;4.07;1.50;;;18.90;74.40;;;;;;6096070;29;20054;-75
2022/10/22 07:48:05;;;;;;;4.03;1.67;;;18.90;74.30;;;;;;6099045;29;20051;-75
2022/10/22 07:51:06;;;;;;;1.45;1.30;;;18.90;74.30;;;;;;6081450;29;20123;-75
2022/10/22 07:54:07;;;;;;;4.55;2.30;;;18.90;74.30;;;;;;6101998;29;20043;-75
2022/10/22 07:57:08;;;;;;;6.28;2.30;;;18.90;74.30;;;;;;6099103;29;20048;-73
2022/10/22 08:00:09;;;;;;;8.52;2.30;;;19.00;74.40;;;;;;6095453;29;20050;-76
2022/10/22 08:03:14;;;;;;;4.05;2.25;;;19.00;74.10;;;;;;6095966;29;20039;-76
2022/10/22 08:06:16;;;;;;;3.95;2.17;;;19.10;74.10;;;;;;6099041;29;20104;-77
2022/10/22 08:09:17;;;;;;;5.18;2.80;;;19.20;74.10;;;;;;6100678;29;20035;-77
2022/10/22 08:12:19;;;;;;;4.50;2.63;;;19.20;73.90;;;;;;6112085;29;20054;-76
2022/10/22 08:15:22;;;;;;;5.95;2.90;;;19.30;73.70;;;;;;6099814;29;20040;-75
2022/10/22 08:18:23;;;;;;;5.10;2.65;;;19.40;73.60;;;;;;6102608;29;20063;-76
2022/10/22 08:21:24;;;;;;;12.38;3.08;;;19.50;73.60;;;;;;6095848;29;20054;-75
2022/10/22 08:24:25;;;;;;;2.72;1.90;;;19.70;73.30;;;;;;6112976;29;20032;-75
2022/10/22 08:27:26;;;;;;;5.28;1.88;;;19.80;72.80;;;;;;6083587;29;20084;-75
2022/10/22 08:30:28;;;;;;;2.97;1.70;;;19.90;72.10;;;;;;6096333;29;20036;-75
2022/10/22 08:33:29;;;;;;;9.70;2.17;;;19.90;71.80;;;;;;6099416;29;20043;-75
2022/10/22 08:36:30;;;;;;;2.72;1.50;;;20.00;71.50;;;;;;6087706;29;20118;-75
2022/10/22 08:39:31;;;;;;;2.97;1.40;;;20.00;71.60;;;;;;6096190;29;20028;-75
2022/10/22 08:42:35;;;;;;;14.65;2.85;;;20.00;71.60;;;;;;6107975;29;20063;-75
2022/10/22 08:46:02;;;;;;;9.98;3.25;;;20.00;71.60;;;;;;6108848;29;20032;-75
2022/10/22 08:49:09;;;;;;;4.45;2.00;;;20.10;71.60;;;;;;6082707;29;20036;-76
2022/10/22 08:52:18;;;;;;;4.95;2.25;;;20.10;71.30;;;;;;6096219;29;20044;-75
2022/10/22 08:55:24;;;;;;;4.78;2.55;;;20.10;71.40;;;;;;6099722;29;20707;-74
2022/10/22 08:58:33;;;;;;;7.85;3.22;;;20.10;71.20;;;;;;6080585;29;20047;-74
2022/10/22 09:01:53;;;;;;;10.32;4.05;;;20.20;71.20;;;;;;6099551;29;20477;-75
2022/10/22 09:05:04;;;;;;;13.00;1.73;;;20.30;71.20;;;;;;6101040;29;20037;-75
2022/10/22 09:08:18;;;;;;;3.55;1.98;;;20.40;70.50;;;;;;6091797;29;20155;-75
2022/10/22 09:11:22;;;;;;;20.58;9.63;;;20.40;70.30;;;;;;6094071;29;20048;-75
2022/10/22 09:14:24;;;;;;;14.90;6.10;;;20.40;69.70;;;;;;6095267;29;20037;-75
2022/10/22 09:17:37;;;;;;;32.25;15.50;;;20.40;69.60;;;;;;6096956;29;20059;-75
2022/10/22 09:20:57;;;;;;;24.42;11.00;;;20.40;69.90;;;;;;6089482;29;20063;-75
2022/10/22 09:24:12;;;;;;;55.85;22.63;;;20.50;70.00;;;;;;6086539;29;20083;-74
2022/10/22 09:27:19;;;;;;;13.18;7.13;;;20.50;69.50;;;;;;6094995;29;20359;-75
2022/10/22 09:30:23;;;;;;;14.88;7.45;;;20.50;69.40;;;;;;6096357;29;20043;-74
2022/10/22 09:33:27;;;;;;;21.63;10.07;;;20.60;69.10;;;;;;6108613;29;20036;-75
2022/10/22 09:36:28;;;;;;;10.57;4.72;;;20.60;69.00;;;;;;6097907;29;20047;-75
2022/10/22 09:39:35;;;;;;;5.32;3.08;;;20.60;68.80;;;;;;6100845;29;20031;-74
2022/10/22 09:42:36;;;;;;;9.70;1.92;;;20.70;68.20;;;;;;6091421;29;20071;-76
2022/10/22 09:45:37;;;;;;;5.88;2.00;;;20.80;67.70;;;;;;6091148;29;20068;-76
2022/10/22 09:48:41;;;;;;;10.13;3.63;;;20.90;67.70;;;;;;6095107;29;20032;-75
2022/10/22 09:51:59;;;;;;;4.20;1.40;;;21.00;67.40;;;;;;6082106;29;20471;-75
2022/10/22 09:55:15;;;;;;;13.32;4.22;;;21.10;66.80;;;;;;6097387;29;20119;-75
2022/10/22 09:58:17;;;;;;;5.45;1.48;;;21.10;66.50;;;;;;6104487;29;20058;-74
2022/10/22 10:01:31;;;;;;;6.85;1.60;;;21.30;66.10;;;;;;6101060;29;20055;-73
2022/10/22 10:04:46;;;;;;;7.45;3.42;;;21.50;65.10;;;;;;6105746;29;20035;-74
2022/10/22 10:07:47;;;;;;;18.88;7.40;;;21.80;64.30;;;;;;6115244;29;20186;-74
2022/10/22 10:11:09;;;;;;;24.25;7.93;;;22.20;62.90;;;;;;6111067;29;20470;-75
2022/10/22 10:14:20;;;;;;;21.65;8.43;;;22.40;61.40;;;;;;6108751;29;20032;-75
2022/10/22 10:17:42;;;;;;;20.48;7.05;;;22.70;59.90;;;;;;6095195;29;20456;-75
2022/10/22 10:20:58;;;;;;;13.48;4.68;;;22.90;59.00;;;;;;6094215;29;20357;-75
2022/10/22 10:24:13;;;;;;;5.68;2.88;;;23.10;57.80;;;;;;6104173;29;20039;-76
2022/10/22 10:27:32;;;;;;;10.73;3.90;;;23.20;57.30;;;;;;6111953;29;20051;-77
2022/10/22 10:30:36;;;;;;;;;;;23.30;57.40;;;;;;6104538;29;20063;-75
2022/10/22 10:33:40;;;;;;;7.88;2.95;;;23.50;56.40;;;;;;6105528;29;20285;-74
2022/10/22 10:36:44;;;;;;;2.38;1.60;;;23.60;55.90;;;;;;6094788;29;20083;-74
2022/10/22 10:40:13;;;;;;;1.77;1.20;;;23.80;56.30;;;;;;6092865;29;20033;-74
2022/10/22 10:44:08;;;;;;;13.02;4.35;;;23.90;56.00;;;;;;6106107;29;20032;-74
2022/10/22 10:47:38;;;;;;;16.13;8.27;;;24.20;55.60;;;;;;6023936;29;20917;-75
2022/10/22 10:50:47;;;;;;;7.65;4.35;;;24.40;54.60;;;;;;6015468;29;20059;-75
2022/10/22 10:53:58;;;;;;;5.15;1.98;;;24.70;54.30;;;;;;6028274;29;20214;-75
2022/10/22 10:57:08;;;;;;;8.10;2.60;;;24.80;54.00;;;;;;6009028;29;20041;-75
2022/10/22 11:00:14;;;;;;;28.35;12.40;;;25.10;52.90;;;;;;6029583;29;20100;-75
2022/10/22 11:03:33;;;;;;;13.32;4.78;;;25.40;51.40;;;;;;6025078;29;20078;-76
2022/10/22 11:06:36;;;;;;;9.30;4.43;;;25.70;50.70;;;;;;6023390;29;20041;-74
2022/10/22 11:10:01;;;;;;;23.30;11.32;;;26.10;50.00;;;;;;6026221;29;20374;-74
2022/10/22 11:13:29;;;;;;;9.93;3.45;;;26.60;49.20;;;;;;6030234;29;20362;-74
2022/10/22 11:16:45;;;;;;;8.97;3.07;;;27.00;48.20;;;;;;6008295;29;20435;-74
2022/10/22 11:20:01;;;;;;;17.63;7.55;;;27.50;46.80;;;;;;6020223;29;20485;-74
2022/10/22 11:23:10;;;;;;;9.23;4.93;;;27.70;45.90;;;;;;6092762;29;20028;-74
2022/10/22 11:26:44;;;;;;;7.70;2.55;;;27.90;45.60;;;;;;6098648;29;20370;-74
2022/10/22 11:29:53;;;;;;;6.68;2.13;;;28.20;45.60;;;;;;6099290;29;20537;-74
2022/10/22 11:33:02;;;;;;;3.05;1.80;;;28.30;44.90;;;;;;6094677;29;20424;-74
2022/10/22 11:36:05;;;;;;;3.85;1.42;;;28.30;45.10;;;;;;6094876;29;20040;-75
2022/10/22 11:39:06;;;;;;;9.43;2.30;;;28.50;45.40;;;;;;6089846;29;20107;-77
2022/10/22 11:42:20;;;;;;;6.45;2.22;;;28.80;44.90;;;;;;6096101;29;20020;-75
2022/10/22 11:45:42;;;;;;;8.38;2.28;;;28.90;44.20;;;;;;6097433;29;20038;-74
2022/10/22 11:48:43;;;;;;;4.35;1.63;;;28.70;44.50;;;;;;6092200;29;20032;-74
2022/10/22 11:51:46;;;;;;;8.40;4.05;;;28.60;44.60;;;;;;6100225;29;20039;-73
2022/10/22 11:54:47;;;;;;;4.60;1.58;;;28.70;45.10;;;;;;6096209;29;20028;-74
2022/10/22 11:57:47;;;;;;;6.70;3.83;;;29.00;44.30;;;;;;6099573;29;20450;-76
2022/10/22 12:00:49;;;;;;;18.00;7.78;;;29.50;43.40;;;;;;6094631;29;20063;-74
2022/10/22 12:03:51;;;;;;;8.30;5.00;;;30.00;42.50;;;;;;6092416;29;20176;-75
2022/10/22 12:07:00;;;;;;;8.70;4.18;;;30.60;41.60;;;;;;6096238;29;20063;-74
2022/10/22 12:10:05;;;;;;;8.57;3.60;;;31.10;40.50;;;;;;6111256;29;20060;-74
2022/10/22 12:13:25;;;;;;;18.48;8.20;;;31.40;39.40;;;;;;6111469;29;20500;-75
2022/10/22 12:16:56;;;;;;;20.42;9.27;;;31.70;39.30;;;;;;6081042;29;20051;-74
2022/10/22 12:20:00;;;;;;;13.38;5.45;;;32.00;37.90;;;;;;6092368;29;20036;-74
2022/10/22 12:23:01;;;;;;;2.03;1.20;;;32.10;37.50;;;;;;6109579;29;20058;-74
2022/10/22 12:26:04;;;;;;;3.53;1.40;;;32.10;38.10;;;;;;6103910;29;20036;-74
2022/10/22 12:29:14;;;;;;;3.30;1.30;;;31.80;38.10;;;;;;6093965;29;20196;-73
2022/10/22 12:32:15;;;;;;;1.38;0.85;;;30.90;38.40;;;;;;6102396;29;20036;-73
2022/10/22 12:35:20;;;;;;;9.48;3.03;;;30.10;39.70;;;;;;6077566;29;20124;-73
2022/10/22 12:38:23;;;;;;;12.90;6.72;;;29.50;40.70;;;;;;6113008;29;20091;-74
2022/10/22 12:41:34;;;;;;;2.90;1.88;;;28.90;41.60;;;;;;6107543;29;20461;-73
2022/10/22 12:44:35;;;;;;;6.93;2.30;;;28.30;42.20;;;;;;6087983;29;20056;-74
2022/10/22 12:47:35;;;;;;;5.00;2.22;;;27.90;42.70;;;;;;6064164;29;20036;-75
2022/10/22 12:50:42;;;;;;;9.75;5.47;;;27.60;43.40;;;;;;6073114;29;20431;-75
2022/10/22 12:53:46;;;;;;;3.83;1.58;;;27.30;43.90;;;;;;6091291;29;20123;-74
2022/10/22 12:56:48;;;;;;;1.80;0.90;;;27.00;44.20;;;;;;6089191;29;20052;-75
2022/10/22 12:59:50;;;;;;;2.15;1.02;;;26.70;44.70;;;;;;6095890;29;20039;-75
2022/10/22 13:02:52;;;;;;;2.03;1.10;;;26.50;45.10;;;;;;6073571;29;20040;-74
2022/10/22 13:05:53;;;;;;;11.50;2.65;;;26.30;45.40;;;;;;6097599;29;20485;-74
2022/10/22 13:09:36;;;;;;;3.10;1.35;;;26.20;45.80;;;;;;6105736;29;20028;-74
2022/10/22 13:12:37;;;;;;;2.35;1.00;;;26.10;46.10;;;;;;5991751;29;20057;-74
2022/10/22 13:15:38;;;;;;;0.88;0.50;;;26.10;46.10;;;;;;6024047;29;20038;-75
2022/10/22 13:18:40;;;;;;;2.05;0.90;;;26.00;46.10;;;;;;6026873;29;20041;-74
2022/10/22 13:21:47;;;;;;;6.85;1.15;;;26.00;46.20;;;;;;6012469;29;20046;-75
2022/10/22 13:24:50;;;;;;;2.28;1.00;;;25.90;46.20;;;;;;6025998;29;20041;-75
2022/10/22 13:28:02;;;;;;;1.92;0.70;;;25.80;46.30;;;;;;6014458;29;20359;-75
2022/10/22 13:31:43;;;;;;;5.95;1.40;;;25.70;46.30;;;;;;6032747;29;20080;-75
2022/10/22 13:34:44;;;;;;;4.03;1.42;;;25.70;46.60;;;;;;5938401;29;20045;-75
2022/10/22 13:37:45;;;;;;;5.03;1.20;;;25.70;46.40;;;;;;5940821;29;20385;-74
2022/10/22 13:40:47;;;;;;;1.83;1.00;;;25.70;46.50;;;;;;5958657;29;20041;-74
2022/10/22 13:43:48;;;;;;;0.70;0.50;;;25.70;46.60;;;;;;5943254;29;20090;-77
2022/10/22 13:46:50;;;;;;;2.65;1.05;;;25.60;46.70;;;;;;5956147;29;20041;-74
2022/10/22 13:49:53;;;;;;;8.70;3.63;;;25.60;46.70;;;;;;6023321;29;20060;-74
2022/10/22 13:52:56;;;;;;;17.15;7.85;;;25.60;46.80;;;;;;6025402;29;20102;-74
2022/10/22 13:55:57;;;;;;;9.82;3.22;;;25.60;46.80;;;;;;5994269;29;20033;-74
2022/10/22 13:58:58;;;;;;;4.47;1.20;;;25.60;46.80;;;;;;6026603;29;20506;-74
2022/10/22 14:02:05;;;;;;;5.93;1.35;;;25.60;46.90;;;;;;6025030;29;20087;-74
2022/10/22 14:05:08;;;;;;;1.98;1.00;;;25.60;47.00;;;;;;6015442;29;20044;-74
2022/10/22 14:08:12;;;;;;;2.78;0.95;;;25.60;46.90;;;;;;6041315;29;20450;-74
2022/10/22 14:11:13;;;;;;;1.50;0.55;;;25.60;46.90;;;;;;6088819;29;20024;-75
2022/10/22 14:14:16;;;;;;;4.28;1.83;;;25.60;46.60;;;;;;6082547;29;20127;-75
2022/10/22 14:17:17;;;;;;;4.82;1.70;;;25.60;46.70;;;;;;6094576;29;20043;-75
2022/10/22 14:20:25;;;;;;;2.60;0.95;;;25.60;46.70;;;;;;6087491;29;20422;-76
2022/10/22 14:23:28;;;;;;;2.28;0.65;;;25.50;46.70;;;;;;6100031;29;20506;-74
2022/10/22 14:26:32;;;;;;;19.38;8.48;;;25.50;46.50;;;;;;6088000;29;20028;-74
2022/10/22 14:29:33;;;;;;;20.85;7.78;;;25.50;46.40;;;;;;6093717;29;20402;-74
2022/10/22 14:32:34;;;;;;;5.65;2.15;;;25.50;46.40;;;;;;6079270;29;20040;-74
2022/10/22 14:35:35;;;;;;;1.88;1.00;;;25.40;46.60;;;;;;6105818;29;20028;-74
2022/10/22 14:38:36;;;;;;;3.67;0.88;;;25.40;47.00;;;;;;6090146;29;20488;-75
2022/10/22 14:41:37;;;;;;;4.30;1.10;;;25.40;47.20;;;;;;6096435;29;20042;-75
2022/10/22 14:44:38;;;;;;;4.18;1.05;;;25.40;47.30;;;;;;6094938;29;20051;-75
2022/10/22 14:47:39;;;;;;;6.32;1.83;;;25.30;47.40;;;;;;6078048;29;20112;-75
2022/10/22 14:50:39;;;;;;;4.07;1.15;;;25.30;47.50;;;;;;6098797;29;20469;-75
2022/10/22 14:53:41;;;;;;;5.85;1.33;;;25.30;47.50;;;;;;6099671;29;20060;-75
2022/10/22 14:56:42;;;;;;;3.67;1.33;;;25.30;47.60;;;;;;6094406;29;20400;-74
2022/10/22 14:59:42;;;;;;;4.22;1.63;;;25.30;47.70;;;;;;6094734;29;20043;-74
2022/10/22 15:02:44;;;;;;;8.02;5.03;;;25.20;47.70;;;;;;6097288;29;20096;-75
2022/10/22 15:05:45;;;;;;;11.43;5.72;;;25.20;47.90;;;;;;6109646;29;20028;-76
2022/10/22 15:08:46;;;;;;;14.88;5.00;;;25.20;48.10;;;;;;6099286;29;20039;-74
2022/10/22 15:11:46;;;;;;;9.65;4.53;;;25.10;48.00;;;;;;6107691;29;20060;-75
2022/10/22 15:14:47;;;;;;;3.42;1.67;;;25.10;47.90;;;;;;6106610;29;20172;-74
2022/10/22 15:17:48;;;;;;;4.13;1.95;;;25.10;47.90;;;;;;6095496;29;20083;-74
2022/10/22 15:21:06;;;;;;;13.63;6.28;;;25.10;47.90;;;;;;6112471;29;20039;-74
2022/10/22 15:24:07;;;;;;;7.20;2.72;;;25.10;48.00;;;;;;6099049;29;20176;-75
2022/10/22 15:27:08;;;;;;;10.75;4.05;;;25.30;48.10;;;;;;6100951;29;20048;-75
2022/10/22 15:30:10;;;;;;;29.60;11.75;;;25.30;48.00;;;;;;6112997;29;20036;-75
2022/10/22 15:33:12;;;;;;;29.40;14.02;;;25.30;48.00;;;;;;6084978;29;20040;-76
2022/10/22 15:36:15;;;;;;;50.17;21.42;;;25.40;48.00;;;;;;6098003;29;20056;-74
2022/10/22 15:39:16;;;;;;;33.65;17.35;;;25.40;48.00;;;;;;6102256;29;20024;-74
2022/10/22 15:42:19;;;;;;;19.08;6.97;;;25.40;48.00;;;;;;6098102;29;20421;-74
2022/10/22 15:45:21;;;;;;;19.40;8.43;;;25.40;48.00;;;;;;6099912;29;20087;-76
2022/10/22 15:48:22;;;;;;;12.85;4.97;;;25.40;48.10;;;;;;6113895;29;20028;-75
2022/10/22 15:51:23;;;;;;;4.88;2.33;;;25.40;48.20;;;;;;6102281;29;20035;-75
2022/10/22 15:54:28;;;;;;;5.03;1.83;;;25.40;48.30;;;;;;6094632;29;20031;-75
2022/10/22 15:57:29;;;;;;;5.38;1.00;;;25.30;48.40;;;;;;6100740;29;20123;-75
2022/10/22 16:00:30;;;;;;;2.58;1.23;;;25.20;48.50;;;;;;6103331;29;20047;-75